Time;durP1;ratioP1;P1;durP2;ratioP2;P2;SDS_P1;SDS_P2;PMS_P1;PMS_P2;Temp;Humidity;BMP_temperature;BMP_pressure;BME280_temperature;BME280_humidity;BME280_pressure;Samples;Min_cycle;Max_cycle;Signal;HPM_P1;HPM_P2
2021/07/24 00:01:45;;;;;;;6.88;5.32;;;18.40;69.80;;;;;;5112641;28;20399;-79
2021/07/24 00:04:11;;;;;;;7.68;5.38;;;18.40;69.80;;;;;;5113608;28;20023;-80
2021/07/24 00:06:37;;;;;;;7.22;5.15;;;18.40;69.90;;;;;;5113654;28;20126;-79
2021/07/24 00:09:04;;;;;;;6.78;5.15;;;18.40;70.00;;;;;;5113821;28;20063;-80
2021/07/24 00:11:32;;;;;;;7.07;4.88;;;18.30;70.00;;;;;;5113494;28;20062;-79
2021/07/24 00:13:58;;;;;;;8.10;6.07;;;18.30;70.10;;;;;;5113394;28;20024;-78
2021/07/24 00:16:23;;;;;;;7.28;5.35;;;18.30;70.20;;;;;;5113519;28;20131;-79
2021/07/24 00:18:49;;;;;;;7.13;5.50;;;18.30;70.30;;;;;;5113147;28;20067;-79
2021/07/24 00:21:15;;;;;;;6.88;5.43;;;18.20;70.40;;;;;;5114179;28;20032;-79
2021/07/24 00:23:40;;;;;;;7.85;5.68;;;18.30;70.50;;;;;;5112983;28;20479;-78
2021/07/24 00:26:06;;;;;;;7.35;5.50;;;18.20;70.60;;;;;;5114283;28;20110;-78
2021/07/24 00:28:32;;;;;;;7.38;5.75;;;18.20;70.80;;;;;;5112866;28;20104;-79
2021/07/24 00:30:57;;;;;;;7.10;5.60;;;18.10;70.90;;;;;;5113156;28;20019;-79
2021/07/24 00:33:23;;;;;;;8.68;5.80;;;18.10;71.10;;;;;;5112794;28;20019;-78
2021/07/24 00:35:49;;;;;;;7.53;5.50;;;18.10;71.20;;;;;;5114060;28;20072;-78
2021/07/24 00:38:14;;;;;;;9.95;5.68;;;18.10;71.20;;;;;;5114081;28;20555;-79
2021/07/24 00:40:54;;;;;;;7.40;5.65;;;18.10;71.30;;;;;;5112570;28;20376;-78
2021/07/24 00:43:25;;;;;;;6.43;5.30;;;18.00;71.40;;;;;;5113803;28;20101;-80
2021/07/24 00:45:54;;;;;;;7.53;6.18;;;18.00;71.50;;;;;;5113877;28;20023;-79
2021/07/24 00:48:22;;;;;;;8.77;6.47;;;18.00;71.60;;;;;;5112757;28;20024;-79
2021/07/24 00:50:50;;;;;;;7.82;6.20;;;18.00;71.70;;;;;;5112509;28;20035;-79
2021/07/24 00:53:23;;;;;;;7.70;5.90;;;17.90;71.80;;;;;;5112515;28;20060;-79
2021/07/24 00:55:50;;;;;;;6.97;5.75;;;17.90;71.90;;;;;;5112443;28;20077;-79
2021/07/24 01:01:41;;;;;;;7.88;5.63;;;17.90;72.00;;;;;;5113632;28;20502;-79
2021/07/24 01:04:07;;;;;;;7.30;5.30;;;17.90;71.90;;;;;;5113725;28;20404;-79
2021/07/24 01:06:33;;;;;;;8.07;6.07;;;17.90;72.00;;;;;;5112314;28;20076;-79
2021/07/24 01:08:59;;;;;;;7.80;5.60;;;17.90;72.00;;;;;;5113508;28;20100;-78
2021/07/24 01:11:25;;;;;;;8.82;6.45;;;17.80;72.10;;;;;;5112370;28;20047;-78
2021/07/24 01:13:50;;;;;;;6.80;5.22;;;17.80;72.30;;;;;;5111839;28;20544;-79
2021/07/24 01:16:16;;;;;;;6.65;5.70;;;17.80;72.40;;;;;;5113522;28;20053;-78
2021/07/24 01:18:42;;;;;;;8.27;5.40;;;17.70;72.40;;;;;;5112171;28;20019;-79
2021/07/24 01:21:09;;;;;;;8.32;5.93;;;17.70;72.50;;;;;;5113543;28;20024;-79
2021/07/24 01:23:36;;;;;;;7.47;5.88;;;17.70;72.60;;;;;;5112024;28;20047;-78
2021/07/24 01:26:03;;;;;;;7.88;6.15;;;17.60;72.70;;;;;;5112121;28;20028;-79
2021/07/24 01:28:34;;;;;;;6.32;4.90;;;17.60;72.80;;;;;;5113418;28;20023;-78
2021/07/24 01:31:05;;;;;;;7.95;5.82;;;17.60;73.00;;;;;;5112075;28;20024;-78
2021/07/24 01:33:34;;;;;;;7.68;5.97;;;17.60;73.00;;;;;;5112121;28;20382;-78
2021/07/24 01:36:00;;;;;;;11.40;5.88;;;17.50;73.10;;;;;;5112271;28;20069;-79
2021/07/24 01:38:27;;;;;;;9.07;6.28;;;17.50;73.20;;;;;;5111990;28;20031;-78
2021/07/24 01:40:53;;;;;;;9.75;6.57;;;17.50;73.30;;;;;;5111683;28;20020;-78
2021/07/24 01:43:19;;;;;;;8.30;5.80;;;17.50;73.40;;;;;;5111906;28;20016;-79
2021/07/24 01:45:44;;;;;;;6.68;5.13;;;17.40;73.40;;;;;;5113201;28;20483;-78
2021/07/24 01:48:30;;;;;;;7.38;5.50;;;17.50;73.50;;;;;;5113447;28;20084;-79
2021/07/24 01:53:43;;;;;;;7.57;5.97;;;17.40;73.60;;;;;;5113301;28;20590;-79
2021/07/24 01:56:11;;;;;;;8.82;6.18;;;17.40;73.70;;;;;;5113146;28;20552;-78
2021/07/24 01:58:37;;;;;;;8.43;6.03;;;17.40;73.80;;;;;;5111765;28;20523;-79
2021/07/24 02:01:05;;;;;;;9.02;6.78;;;17.30;74.00;;;;;;5111971;28;20059;-78
2021/07/24 02:03:37;;;;;;;8.60;5.70;;;17.30;74.10;;;;;;5111774;28;20116;-78
2021/07/24 02:06:04;;;;;;;7.07;5.40;;;17.30;74.10;;;;;;5112877;28;20043;-78
2021/07/24 02:08:32;;;;;;;7.38;5.53;;;17.30;74.20;;;;;;5111737;28;20027;-79
2021/07/24 02:11:00;;;;;;;7.70;5.90;;;17.30;74.30;;;;;;5111543;28;20064;-78
2021/07/24 02:13:26;;;;;;;7.90;6.22;;;17.20;74.30;;;;;;5113006;28;20028;-78
2021/07/24 02:15:52;;;;;;;7.78;5.70;;;17.20;74.50;;;;;;5111550;28;20038;-79
2021/07/24 02:18:20;;;;;;;8.45;5.60;;;17.20;74.50;;;;;;5111980;28;20023;-78
2021/07/24 02:20:47;;;;;;;8.50;5.85;;;17.20;74.60;;;;;;5112749;28;20027;-78
2021/07/24 02:23:14;;;;;;;7.30;5.55;;;17.20;74.60;;;;;;5111814;28;20094;-78
2021/07/24 02:25:40;;;;;;;8.07;5.97;;;17.20;74.60;;;;;;5115984;28;20023;-79
2021/07/24 02:28:06;;;;;;;8.95;5.93;;;17.20;74.60;;;;;;5115085;28;20435;-78
2021/07/24 02:30:32;;;;;;;7.43;5.50;;;17.20;74.70;;;;;;5116363;28;20115;-79
2021/07/24 02:32:57;;;;;;;7.53;5.75;;;17.20;74.70;;;;;;5116503;28;20023;-79
2021/07/24 02:35:26;;;;;;;8.57;5.85;;;17.20;74.80;;;;;;5115056;28;20027;-79
2021/07/24 02:37:52;;;;;;;8.38;5.90;;;17.20;74.90;;;;;;5116582;28;20035;-79
2021/07/24 02:40:18;;;;;;;6.93;5.30;;;17.10;75.00;;;;;;5114824;28;20076;-78
2021/07/24 02:42:44;;;;;;;7.25;5.53;;;17.10;75.00;;;;;;5114851;28;20072;-78
2021/07/24 02:45:10;;;;;;;7.22;5.28;;;17.10;75.10;;;;;;5114716;28;20390;-78
2021/07/24 02:47:36;;;;;;;7.43;5.90;;;17.10;75.20;;;;;;5115978;28;20038;-78
2021/07/24 02:50:02;;;;;;;9.75;6.00;;;17.00;75.20;;;;;;5114634;28;20020;-78
2021/07/24 02:52:28;;;;;;;7.97;5.53;;;17.00;75.20;;;;;;5114635;28;20100;-78
2021/07/24 02:54:53;;;;;;;8.15;6.10;;;17.00;75.30;;;;;;5114496;28;20478;-78
2021/07/24 02:57:19;;;;;;;8.13;5.85;;;17.00;75.40;;;;;;5116007;28;20482;-77
2021/07/24 02:59:45;;;;;;;7.55;5.25;;;17.00;75.50;;;;;;5115747;28;20023;-78
2021/07/24 03:02:14;;;;;;;7.15;5.68;;;16.90;75.60;;;;;;5114647;28;20036;-78
2021/07/24 03:04:39;;;;;;;7.97;5.68;;;16.90;75.70;;;;;;5114104;28;20051;-78
2021/07/24 03:07:05;;;;;;;6.68;5.28;;;16.90;75.90;;;;;;5114541;28;20441;-78
2021/07/24 03:09:30;;;;;;;7.97;5.68;;;16.90;75.90;;;;;;5114799;28;20024;-78
2021/07/24 03:11:56;;;;;;;7.47;5.03;;;16.90;75.90;;;;;;5114199;28;20031;-78
2021/07/24 03:14:24;;;;;;;7.60;5.18;;;16.80;75.90;;;;;;5114460;28;20032;-78
2021/07/24 03:16:50;;;;;;;7.32;5.43;;;16.80;76.00;;;;;;5114238;28;20164;-78
2021/07/24 03:19:15;;;;;;;7.22;5.30;;;16.80;76.00;;;;;;5114199;28;20118;-78
2021/07/24 03:21:41;;;;;;;8.57;6.30;;;16.80;76.10;;;;;;5113991;28;20384;-79
2021/07/24 03:24:06;;;;;;;8.52;5.43;;;16.80;76.20;;;;;;5114099;28;20030;-79
2021/07/24 03:26:32;;;;;;;7.18;5.57;;;16.80;76.20;;;;;;5114491;28;20039;-79
2021/07/24 03:28:58;;;;;;;7.03;5.55;;;16.70;76.30;;;;;;5114042;28;20518;-78
2021/07/24 03:31:23;;;;;;;7.80;5.53;;;16.70;76.40;;;;;;5113942;28;20108;-77
2021/07/24 03:33:49;;;;;;;9.10;5.75;;;16.70;76.40;;;;;;5113919;28;20023;-78
2021/07/24 03:36:15;;;;;;;8.65;5.40;;;16.70;76.40;;;;;;5114904;28;20038;-78
2021/07/24 03:38:40;;;;;;;7.55;5.55;;;16.60;76.50;;;;;;5113648;28;20057;-78
2021/07/24 03:41:06;;;;;;;7.45;5.28;;;16.70;76.70;;;;;;5114865;28;20447;-78
2021/07/24 03:43:32;;;;;;;8.30;5.38;;;16.60;76.60;;;;;;5113704;28;20027;-78
2021/07/24 03:45:58;;;;;;;6.57;5.55;;;16.60;76.70;;;;;;5113685;28;20035;-78
2021/07/24 03:48:24;;;;;;;8.32;5.38;;;16.60;76.80;;;;;;5114828;28;20395;-79
2021/07/24 03:50:49;;;;;;;9.20;6.35;;;16.60;76.80;;;;;;5113435;28;20050;-79
2021/07/24 03:53:15;;;;;;;8.07;5.55;;;16.60;76.80;;;;;;5113551;28;20028;-79
2021/07/24 03:55:41;;;;;;;7.85;6.10;;;16.60;76.80;;;;;;5113520;28;20444;-79
2021/07/24 03:58:06;;;;;;;6.90;5.20;;;16.60;76.90;;;;;;5114781;28;20505;-79
2021/07/24 04:00:40;;;;;;;8.50;5.60;;;16.60;77.50;;;;;;5113196;28;20023;-78
2021/07/24 04:03:06;;;;;;;6.72;5.38;;;16.60;77.00;;;;;;5113333;28;20585;-78
2021/07/24 04:05:38;;;;;;;7.18;5.45;;;16.60;77.00;;;;;;5113043;28;20047;-79
2021/07/24 04:08:04;;;;;;;8.85;5.80;;;16.60;76.90;;;;;;5114668;28;20483;-79
2021/07/24 04:10:30;;;;;;;8.82;5.68;;;16.60;77.00;;;;;;5113233;28;20042;-78
2021/07/24 04:12:56;;;;;;;7.82;5.88;;;16.60;77.00;;;;;;5114297;28;20035;-78
2021/07/24 04:15:22;;;;;;;7.07;5.47;;;16.60;77.00;;;;;;5114361;28;20032;-79
2021/07/24 04:17:47;;;;;;;9.05;5.85;;;16.60;77.00;;;;;;5112966;28;20035;-78
2021/07/24 04:20:15;;;;;;;10.30;6.30;;;16.60;77.20;;;;;;5112845;28;20555;-78
2021/07/24 04:22:41;;;;;;;10.68;6.57;;;16.70;77.40;;;;;;5112827;28;20080;-79
2021/07/24 04:25:07;;;;;;;7.22;6.03;;;16.60;77.40;;;;;;5114232;28;20024;-79
2021/07/24 04:27:33;;;;;;;8.88;6.20;;;16.60;77.40;;;;;;5112860;28;20066;-78
2021/07/24 04:29:59;;;;;;;7.88;5.55;;;16.70;77.50;;;;;;5112778;28;20047;-78
2021/07/24 04:32:24;;;;;;;8.75;5.70;;;16.70;77.40;;;;;;5113961;28;20055;-78
2021/07/24 04:34:50;;;;;;;7.05;5.30;;;16.80;77.40;;;;;;5115214;28;20095;-86
2021/07/24 04:37:16;;;;;;;6.10;4.80;;;16.80;77.20;;;;;;5113811;28;20459;-87
2021/07/24 04:39:41;;;;;;;6.78;5.00;;;16.90;77.20;;;;;;5115451;28;20472;-85
2021/07/24 04:42:07;;;;;;;7.20;5.40;;;17.00;77.10;;;;;;5113847;28;20062;-85
2021/07/24 04:44:32;;;;;;;5.28;4.50;;;17.00;76.90;;;;;;5113868;28;20118;-86
2021/07/24 04:46:58;;;;;;;6.70;4.75;;;17.10;76.80;;;;;;5113490;28;20383;-85
2021/07/24 04:49:24;;;;;;;6.80;4.63;;;17.20;76.70;;;;;;5114412;28;20030;-86
2021/07/24 04:51:50;;;;;;;7.25;4.43;;;17.20;76.50;;;;;;5115153;28;20120;-85
2021/07/24 04:54:16;;;;;;;5.57;4.43;;;17.30;76.40;;;;;;5113881;28;20027;-86
2021/07/24 04:56:42;;;;;;;5.40;4.50;;;17.30;76.30;;;;;;5111179;28;20616;-86
2021/07/24 04:59:09;;;;;;;7.45;4.45;;;17.40;76.30;;;;;;5115072;28;20027;-85
2021/07/24 05:01:35;;;;;;;6.95;4.70;;;17.40;76.20;;;;;;5115067;28;20035;-86
2021/07/24 05:04:02;;;;;;;6.50;4.97;;;17.40;76.10;;;;;;5113722;28;20483;-85
2021/07/24 05:06:30;;;;;;;6.15;4.50;;;17.50;76.10;;;;;;5113355;28;20044;-85
2021/07/24 05:08:56;;;;;;;6.75;5.13;;;17.50;76.00;;;;;;5115369;28;20051;-85
2021/07/24 05:11:21;;;;;;;6.47;5.10;;;17.50;75.90;;;;;;5114379;28;20054;-86
2021/07/24 05:13:47;;;;;;;6.47;4.60;;;17.60;75.90;;;;;;5113882;28;20032;-84
2021/07/24 05:16:13;;;;;;;6.47;4.97;;;17.60;75.90;;;;;;5113706;28;20035;-86
2021/07/24 05:18:38;;;;;;;7.20;5.50;;;17.60;75.80;;;;;;5113781;28;20106;-85
2021/07/24 05:21:04;;;;;;;7.15;4.80;;;17.60;75.80;;;;;;5114927;28;20107;-83
2021/07/24 05:23:30;;;;;;;5.72;4.82;;;17.60;75.80;;;;;;5114822;28;20024;-85
2021/07/24 05:25:56;;;;;;;7.55;5.30;;;17.70;75.70;;;;;;5113811;28;20049;-85
2021/07/24 05:28:21;;;;;;;7.68;5.05;;;17.70;75.60;;;;;;5112828;28;20024;-84
2021/07/24 05:30:47;;;;;;;7.47;4.93;;;17.80;75.60;;;;;;5113668;28;20127;-86
2021/07/24 05:33:12;;;;;;;5.50;4.70;;;17.80;75.50;;;;;;5113378;28;20114;-85
2021/07/24 05:35:39;;;;;;;6.53;4.65;;;17.80;75.30;;;;;;5113021;28;20062;-85
2021/07/24 05:38:05;;;;;;;6.78;5.30;;;17.90;75.20;;;;;;5113456;28;20031;-85
2021/07/24 05:40:30;;;;;;;5.63;4.38;;;18.00;75.20;;;;;;5112992;28;20043;-85
2021/07/24 05:43:00;;;;;;;6.88;5.18;;;18.00;75.10;;;;;;5115387;28;20066;-85
2021/07/24 05:45:27;;;;;;;5.30;4.38;;;18.10;75.00;;;;;;5110056;28;20043;-85
2021/07/24 05:47:53;;;;;;;5.00;4.40;;;18.20;74.90;;;;;;5113289;28;20388;-84
2021/07/24 05:50:18;;;;;;;6.97;4.72;;;18.30;74.70;;;;;;5112820;28;20024;-86
2021/07/24 05:52:44;;;;;;;5.40;4.55;;;18.40;74.50;;;;;;5113225;28;20486;-85
2021/07/24 05:55:10;;;;;;;5.15;4.47;;;18.40;74.40;;;;;;5112852;28;20114;-86
2021/07/24 05:57:38;;;;;;;7.40;5.00;;;18.50;74.30;;;;;;5113527;28;20020;-85
2021/07/24 06:00:05;;;;;;;6.05;5.15;;;18.60;74.20;;;;;;5115592;28;20027;-84
2021/07/24 06:02:31;;;;;;;5.93;4.97;;;18.50;74.00;;;;;;5117098;28;20049;-85
2021/07/24 06:04:57;;;;;;;6.55;4.53;;;18.60;74.00;;;;;;5116717;28;20123;-85
2021/07/24 06:07:23;;;;;;;6.57;5.05;;;18.60;74.00;;;;;;5117139;28;20016;-85
2021/07/24 06:09:48;;;;;;;5.82;4.40;;;18.60;73.90;;;;;;5116976;28;20546;-86
2021/07/24 06:12:14;;;;;;;7.18;5.22;;;18.60;73.80;;;;;;5117792;28;20027;-86
2021/07/24 06:14:40;;;;;;;6.38;5.00;;;18.70;73.80;;;;;;5117504;28;20126;-86
2021/07/24 06:17:05;;;;;;;6.72;4.60;;;18.60;73.80;;;;;;5117606;28;20027;-85
2021/07/24 06:19:31;;;;;;;7.38;5.13;;;18.70;73.80;;;;;;5116741;28;20555;-86
2021/07/24 06:21:58;;;;;;;5.00;4.43;;;18.70;73.70;;;;;;5116373;28;20032;-87
2021/07/24 06:24:24;;;;;;;7.25;5.00;;;18.80;73.70;;;;;;5116526;28;20028;-86
2021/07/24 06:26:50;;;;;;;5.53;4.55;;;18.80;73.50;;;;;;5117570;28;20437;-86
2021/07/24 06:29:16;;;;;;;6.38;5.13;;;18.90;73.40;;;;;;5116315;28;20059;-86
2021/07/24 06:31:42;;;;;;;5.78;4.82;;;18.90;73.30;;;;;;5118434;28;20407;-86
2021/07/24 06:34:08;;;;;;;5.75;4.70;;;18.90;73.20;;;;;;5117852;28;20023;-87
2021/07/24 06:36:39;;;;;;;6.65;5.32;;;19.00;73.20;;;;;;5116791;28;20479;-88
2021/07/24 06:39:05;;;;;;;6.30;4.68;;;19.00;73.10;;;;;;5116039;28;20479;-86
2021/07/24 06:41:33;;;;;;;5.35;4.25;;;19.10;73.10;;;;;;5116181;28;20031;-86
2021/07/24 06:43:58;;;;;;;6.55;4.25;;;19.20;73.00;;;;;;5116385;28;20043;-85
2021/07/24 06:46:24;;;;;;;5.85;4.63;;;19.20;72.80;;;;;;5117312;28;20031;-85
2021/07/24 06:48:49;;;;;;;7.38;4.93;;;19.30;72.70;;;;;;5117015;28;20165;-85
2021/07/24 06:51:15;;;;;;;4.95;4.45;;;19.30;72.60;;;;;;5117211;28;20079;-86
2021/07/24 06:53:41;;;;;;;5.20;4.43;;;19.30;72.60;;;;;;5117315;28;20156;-86
2021/07/24 06:56:07;;;;;;;5.65;4.70;;;19.30;72.50;;;;;;5118027;28;20036;-89
2021/07/24 06:58:33;;;;;;;6.13;4.80;;;19.40;72.50;;;;;;5117478;28;20028;-86
2021/07/24 07:00:58;;;;;;;5.70;4.57;;;19.40;72.50;;;;;;5117325;28;20028;-87
2021/07/24 07:03:24;;;;;;;5.97;4.57;;;19.40;72.50;;;;;;5116595;28;20032;-86
2021/07/24 07:05:50;;;;;;;6.82;5.53;;;19.40;72.50;;;;;;5116213;28;20100;-85
2021/07/24 07:08:17;;;;;;;5.68;5.03;;;19.40;72.50;;;;;;5116729;28;20030;-87
2021/07/24 07:10:43;;;;;;;6.60;5.10;;;19.40;72.50;;;;;;5116441;28;20024;-83
2021/07/24 07:13:08;;;;;;;7.10;5.38;;;19.40;72.40;;;;;;5118105;28;20104;-86
2021/07/24 07:15:34;;;;;;;5.20;4.68;;;19.50;72.40;;;;;;5116535;28;20036;-87
2021/07/24 07:18:00;;;;;;;5.57;4.30;;;19.50;72.40;;;;;;5118670;28;20028;-87
2021/07/24 07:20:26;;;;;;;6.45;5.20;;;19.50;72.30;;;;;;5115710;28;20028;-85
2021/07/24 07:22:52;;;;;;;5.03;4.25;;;19.60;72.90;;;;;;5115711;28;20027;-86
2021/07/24 07:25:17;;;;;;;6.18;5.07;;;19.70;72.20;;;;;;5116456;28;20024;-86
2021/07/24 07:27:44;;;;;;;5.00;4.28;;;19.70;72.10;;;;;;5116239;28;20024;-86
2021/07/24 07:30:11;;;;;;;6.80;4.63;;;19.80;72.00;;;;;;5116461;28;20097;-87
2021/07/24 07:32:38;;;;;;;5.75;4.55;;;19.90;72.00;;;;;;5115746;28;20070;-88
2021/07/24 07:35:04;;;;;;;5.55;4.57;;;20.00;71.80;;;;;;5117745;28;20502;-85
2021/07/24 07:37:30;;;;;;;4.80;4.30;;;20.10;71.70;;;;;;5116491;28;20055;-86
2021/07/24 07:39:56;;;;;;;4.72;4.18;;;20.20;71.50;;;;;;5116781;28;20024;-89
2021/07/24 07:42:22;;;;;;;5.47;4.72;;;20.30;71.30;;;;;;5116006;28;20119;-86
2021/07/24 07:44:48;;;;;;;5.65;4.50;;;20.40;71.20;;;;;;5116319;28;20024;-86
2021/07/24 07:50:37;;;;;;;4.80;4.10;;;20.40;71.00;;;;;;5117675;28;20066;-87
2021/07/24 07:53:04;;;;;;;6.20;5.18;;;20.50;71.00;;;;;;5117188;28;20442;-89
2021/07/24 07:55:29;;;;;;;5.63;4.68;;;20.50;70.80;;;;;;5117151;28;20084;-88
2021/07/24 07:57:55;;;;;;;7.22;5.15;;;20.60;70.80;;;;;;5117942;28;20122;-87
2021/07/24 08:00:22;;;;;;;9.20;5.25;;;20.60;70.60;;;;;;5117123;28;20035;-87
2021/07/24 08:02:55;;;;;;;4.68;4.20;;;20.70;70.60;;;;;;5116958;28;20028;-87
2021/07/24 08:05:22;;;;;;;5.25;4.63;;;20.70;70.50;;;;;;5116916;28;20036;-87
2021/07/24 08:07:47;;;;;;;7.30;5.13;;;20.90;70.50;;;;;;5116430;28;20071;-88
2021/07/24 08:10:13;;;;;;;6.25;4.72;;;20.90;70.10;;;;;;5117600;28;20548;-87
2021/07/24 08:12:38;;;;;;;5.43;3.90;;;21.00;70.10;;;;;;5116695;28;20362;-87
2021/07/24 08:15:05;;;;;;;5.57;4.80;;;21.10;69.90;;;;;;5117023;28;20073;-88
2021/07/24 08:17:30;;;;;;;6.45;5.07;;;21.10;69.70;;;;;;5117892;28;20051;-87
2021/07/24 08:19:56;;;;;;;6.75;4.68;;;21.30;69.60;;;;;;5117299;28;20024;-89
2021/07/24 08:25:44;;;;;;;5.78;4.30;;;21.50;69.10;;;;;;5118287;28;20146;-86
2021/07/24 08:28:12;;;;;;;6.40;4.90;;;21.60;69.00;;;;;;5116018;28;20450;-86
2021/07/24 08:30:38;;;;;;;5.68;4.78;;;21.70;68.80;;;;;;5116240;28;20077;-87
2021/07/24 08:33:04;;;;;;;7.60;5.10;;;21.80;68.70;;;;;;5115876;28;20035;-86
2021/07/24 08:35:29;;;;;;;6.88;4.85;;;21.90;68.50;;;;;;5115842;28;20047;-86
2021/07/24 08:37:55;;;;;;;4.95;4.35;;;22.00;68.40;;;;;;5116153;28;20080;-86
2021/07/24 08:40:21;;;;;;;5.32;4.82;;;22.00;68.30;;;;;;5114879;28;20506;-83
2021/07/24 08:42:47;;;;;;;6.95;5.20;;;22.10;68.10;;;;;;5115484;28;20028;-86
2021/07/24 08:45:14;;;;;;;4.93;4.43;;;22.20;67.80;;;;;;5114705;28;20419;-87
2021/07/24 08:47:40;;;;;;;5.95;4.50;;;22.30;67.70;;;;;;5115026;28;20015;-86
2021/07/24 08:50:08;;;;;;;5.72;4.60;;;22.50;67.70;;;;;;5115659;28;20031;-86
2021/07/24 08:52:35;;;;;;;5.47;4.20;;;22.60;67.60;;;;;;5116430;28;20043;-85
2021/07/24 08:55:04;;;;;;;5.50;4.20;;;22.70;67.30;;;;;;5114571;28;20409;-87
2021/07/24 08:57:35;;;;;;;7.25;5.38;;;22.90;67.10;;;;;;5116483;28;20031;-88
2021/07/24 09:00:12;;;;;;;5.88;5.07;;;23.00;66.70;;;;;;5115142;28;20024;-86
2021/07/24 09:02:43;;;;;;;5.63;4.80;;;23.10;66.30;;;;;;5115529;28;20027;-86
2021/07/24 09:05:15;;;;;;;5.88;4.32;;;23.10;66.20;;;;;;5114166;28;20032;-85
2021/07/24 09:07:46;;;;;;;5.80;4.88;;;23.10;66.30;;;;;;5113974;28;20364;-86
2021/07/24 09:10:13;;;;;;;6.03;4.63;;;23.10;66.30;;;;;;5115933;28;20039;-86
2021/07/24 09:12:40;;;;;;;5.75;5.15;;;23.10;66.30;;;;;;5114595;28;20378;-88
2021/07/24 09:15:08;;;;;;;5.47;4.38;;;23.10;66.10;;;;;;5115122;28;20055;-87
2021/07/24 09:20:56;;;;;;;5.03;4.45;;;23.30;65.80;;;;;;5115404;28;20085;-87
2021/07/24 09:23:33;;;;;;;5.70;4.80;;;23.40;65.70;;;;;;5110448;28;20060;-85
2021/07/24 09:26:00;;;;;;;6.40;4.70;;;23.50;65.50;;;;;;5115807;28;20030;-84
2021/07/24 09:28:28;;;;;;;5.82;4.70;;;23.70;65.20;;;;;;5115296;28;20080;-86
2021/07/24 09:34:16;;;;;;;4.45;4.03;;;24.00;64.90;;;;;;5118001;28;20042;-86
2021/07/24 09:36:44;;;;;;;4.90;4.28;;;24.10;64.80;;;;;;5117681;28;20015;-86
2021/07/24 09:39:18;;;;;;;6.57;4.80;;;24.20;64.50;;;;;;5119059;28;20076;-85
2021/07/24 09:41:45;;;;;;;5.25;4.60;;;24.20;64.40;;;;;;5118661;28;20024;-86
2021/07/24 09:44:12;;;;;;;4.70;4.22;;;24.30;64.40;;;;;;5119139;28;20117;-87
2021/07/24 09:46:38;;;;;;;6.03;4.80;;;24.30;64.30;;;;;;5117561;28;20027;-87
2021/07/24 09:49:16;;;;;;;5.40;4.90;;;24.30;64.20;;;;;;5118695;28;20016;-87
2021/07/24 09:51:43;;;;;;;5.40;4.88;;;24.30;64.40;;;;;;5118957;28;20023;-85
2021/07/24 09:54:27;;;;;;;5.55;5.00;;;24.30;64.40;;;;;;5117882;28;20065;-87
2021/07/24 09:56:53;;;;;;;5.43;4.82;;;24.30;64.40;;;;;;5118219;28;20034;-88
2021/07/24 09:59:31;;;;;;;6.72;5.38;;;24.30;64.40;;;;;;5117570;28;20016;-86
2021/07/24 10:01:58;;;;;;;6.13;5.53;;;24.40;64.20;;;;;;5117334;28;20024;-87
2021/07/24 10:04:35;;;;;;;8.02;5.18;;;24.40;64.00;;;;;;5117592;28;20482;-86
2021/07/24 10:07:06;;;;;;;5.97;4.95;;;24.40;63.90;;;;;;5118082;28;20493;-87
2021/07/24 10:09:41;;;;;;;5.90;4.93;;;24.40;63.90;;;;;;5120148;28;20058;-88
2021/07/24 10:12:15;;;;;;;6.72;4.93;;;24.40;63.70;;;;;;5120035;28;20085;-89
2021/07/24 10:14:42;;;;;;;6.07;5.22;;;24.40;63.80;;;;;;5118706;28;20073;-89
2021/07/24 10:17:08;;;;;;;6.50;5.40;;;24.40;63.70;;;;;;5119210;28;20068;-88
2021/07/24 10:19:34;;;;;;;6.68;5.03;;;24.40;63.80;;;;;;5120212;28;20107;-88
2021/07/24 10:22:01;;;;;;;5.50;4.97;;;24.40;63.80;;;;;;5115805;28;20056;-88
2021/07/24 10:24:28;;;;;;;5.15;4.63;;;24.50;63.80;;;;;;5117717;28;20019;-88
2021/07/24 10:27:13;;;;;;;5.07;4.40;;;24.50;63.80;;;;;;5118893;28;20024;-86
2021/07/24 10:29:57;;;;;;;5.38;4.78;;;24.60;63.90;;;;;;5117678;28;20035;-87
2021/07/24 10:32:29;;;;;;;6.22;5.10;;;24.60;63.80;;;;;;5119371;28;20555;-87
2021/07/24 10:34:55;;;;;;;6.00;5.00;;;24.70;63.80;;;;;;5118010;28;20494;-87
2021/07/24 10:37:32;;;;;;;6.20;5.50;;;24.70;63.80;;;;;;5117228;28;20028;-87
2021/07/24 10:40:25;;;;;;;6.70;5.38;;;24.70;63.80;;;;;;5118858;28;20019;-87
2021/07/24 10:42:51;;;;;;;5.80;5.10;;;24.70;63.60;;;;;;5118204;28;20019;-88
2021/07/24 10:45:45;;;;;;;5.10;4.60;;;24.70;63.50;;;;;;5117446;28;20031;-87
2021/07/24 10:52:05;;;;;;;6.35;5.07;;;24.80;63.50;;;;;;5120150;28;20034;-87
2021/07/24 10:54:32;;;;;;;6.90;6.20;;;24.80;63.40;;;;;;5118505;28;20023;-87
2021/07/24 10:56:59;;;;;;;8.88;6.07;;;24.70;63.30;;;;;;5117582;28;20027;-86
2021/07/24 10:59:31;;;;;;;7.63;6.03;;;24.70;63.30;;;;;;5117155;28;20115;-87
2021/07/24 11:02:03;;;;;;;8.60;6.45;;;24.70;63.40;;;;;;5117448;28;20034;-86
2021/07/24 11:04:35;;;;;;;6.35;5.75;;;24.70;63.50;;;;;;5116241;28;20055;-85
2021/07/24 11:07:13;;;;;;;7.05;5.57;;;24.70;63.50;;;;;;5117032;28;20033;-87
2021/07/24 11:09:43;;;;;;;8.32;5.80;;;24.60;63.50;;;;;;5116472;28;20030;-88
2021/07/24 11:12:10;;;;;;;7.25;5.60;;;24.60;63.60;;;;;;5114392;28;20536;-86
2021/07/24 11:18:23;;;;;;;6.20;5.60;;;24.50;63.70;;;;;;5119325;28;20026;-87
2021/07/24 11:20:50;;;;;;;7.05;5.43;;;24.50;63.80;;;;;;5116662;28;20090;-87
2021/07/24 11:23:17;;;;;;;7.25;5.68;;;24.50;63.90;;;;;;5116883;28;20020;-86
2021/07/24 11:25:51;;;;;;;7.63;6.03;;;24.50;64.00;;;;;;5116445;28;20015;-86
2021/07/24 11:28:22;;;;;;;8.25;6.10;;;24.50;64.00;;;;;;5115480;28;20023;-85
2021/07/24 11:31:02;;;;;;;8.27;6.05;;;24.40;64.00;;;;;;5116848;28;20386;-86
2021/07/24 11:33:30;;;;;;;6.10;5.40;;;24.30;64.10;;;;;;5117594;28;20033;-87
2021/07/24 11:36:02;;;;;;;8.80;5.75;;;24.30;64.30;;;;;;5114501;28;20066;-86
2021/07/24 11:38:30;;;;;;;6.75;5.55;;;24.30;64.40;;;;;;5116263;28;20042;-87
2021/07/24 11:41:01;;;;;;;7.90;5.90;;;24.30;64.40;;;;;;5116656;28;20027;-88
2021/07/24 11:47:05;;;;;;;8.02;6.53;;;24.40;64.50;;;;;;5117593;28;20070;-87
2021/07/24 11:49:31;;;;;;;6.85;6.15;;;24.40;64.40;;;;;;5114091;28;20024;-87
2021/07/24 11:51:58;;;;;;;8.13;6.00;;;24.40;64.30;;;;;;5116003;28;20027;-87
2021/07/24 11:54:35;;;;;;;6.18;5.57;;;24.50;64.40;;;;;;5115905;28;20073;-89
2021/07/24 11:57:02;;;;;;;7.60;6.05;;;24.50;64.40;;;;;;5116614;28;20131;-88
2021/07/24 11:59:30;;;;;;;6.07;5.22;;;24.50;64.50;;;;;;5115912;28;20027;-87
2021/07/24 12:01:57;;;;;;;7.47;6.30;;;24.40;64.50;;;;;;5115787;28;20264;-87
2021/07/24 12:04:23;;;;;;;6.63;5.97;;;24.50;64.50;;;;;;5116294;28;20543;-86
2021/07/24 12:06:59;;;;;;;6.82;5.90;;;24.50;64.50;;;;;;5115188;28;20066;-86
2021/07/24 12:09:26;;;;;;;7.30;6.03;;;24.50;64.60;;;;;;5115631;28;20022;-88
2021/07/24 12:11:58;;;;;;;6.07;5.47;;;24.50;64.60;;;;;;5116800;28;20027;-87
2021/07/24 12:14:25;;;;;;;6.65;5.35;;;24.50;64.70;;;;;;5116232;28;20028;-88
2021/07/24 12:17:04;;;;;;;8.18;6.05;;;24.50;64.80;;;;;;5115751;28;20020;-88
2021/07/24 12:19:37;;;;;;;9.18;6.15;;;24.50;64.90;;;;;;5115983;28;20107;-88
2021/07/24 12:22:18;;;;;;;10.43;5.63;;;24.40;64.90;;;;;;5115054;28;20462;-88
2021/07/24 12:24:46;;;;;;;5.95;5.35;;;24.40;65.10;;;;;;5114888;28;20045;-87
2021/07/24 12:27:25;;;;;;;6.93;5.80;;;24.40;65.20;;;;;;5111380;28;20028;-86
2021/07/24 12:29:59;;;;;;;7.18;5.93;;;24.40;65.30;;;;;;5116510;28;20444;-86
2021/07/24 12:32:38;;;;;;;10.10;6.43;;;24.30;65.40;;;;;;5115749;28;20455;-87
2021/07/24 12:35:14;;;;;;;6.78;5.82;;;24.30;65.40;;;;;;5115575;28;20417;-87
2021/07/24 12:37:39;;;;;;;7.45;6.13;;;24.40;65.50;;;;;;5114643;28;20031;-85
2021/07/24 12:40:32;;;;;;;6.40;5.72;;;24.40;65.50;;;;;;5114835;28;20361;-86
2021/07/24 12:43:09;;;;;;;7.70;5.60;;;24.40;65.50;;;;;;5112428;28;20042;-88
2021/07/24 12:45:35;;;;;;;6.25;5.65;;;24.50;65.50;;;;;;5114617;28;20084;-86
2021/07/24 12:48:25;;;;;;;6.40;5.80;;;24.50;65.40;;;;;;5114857;28;20016;-86
2021/07/24 12:51:06;;;;;;;7.03;6.00;;;24.50;65.40;;;;;;5114929;28;20046;-89
2021/07/24 12:53:31;;;;;;;6.72;5.78;;;24.60;65.30;;;;;;5117415;28;20023;-89
2021/07/24 12:55:57;;;;;;;9.88;5.97;;;24.60;65.20;;;;;;5114903;28;20115;-88
2021/07/24 12:58:23;;;;;;;8.70;6.00;;;24.70;65.30;;;;;;5115050;28;20031;-88
2021/07/24 13:00:48;;;;;;;6.95;6.25;;;24.70;65.20;;;;;;5114228;28;20399;-88
2021/07/24 13:03:14;;;;;;;9.48;6.30;;;24.70;65.10;;;;;;5115535;28;20035;-87
2021/07/24 13:05:40;;;;;;;7.65;5.93;;;24.80;65.10;;;;;;5114794;28;20130;-86
2021/07/24 13:08:06;;;;;;;6.88;6.10;;;24.90;65.00;;;;;;5097107;28;20115;-87
2021/07/24 13:10:31;;;;;;;7.65;6.40;;;24.90;64.80;;;;;;5114932;28;20028;-88
2021/07/24 13:12:57;;;;;;;6.97;6.13;;;24.90;64.80;;;;;;5098390;28;20019;-87
2021/07/24 13:15:24;;;;;;;7.00;6.05;;;24.90;64.60;;;;;;5098866;28;20035;-88
2021/07/24 13:17:53;;;;;;;7.53;6.53;;;25.00;64.60;;;;;;5098335;28;20065;-88
2021/07/24 13:20:19;;;;;;;8.27;6.72;;;25.10;64.50;;;;;;5098664;28;20071;-87